sensor_id;sensor_type;location;lat;lon;timestamp;pressure;altitude;pressure_sealevel;temperature;humidity
12969;BME280;6549;53.128;8.182;2023-07-20T00:02:27;101097.03;;;14.41;100.00
12969;BME280;6549;53.128;8.182;2023-07-20T00:05:31;101088.72;;;14.41;100.00
12969;BME280;6549;53.128;8.182;2023-07-20T00:08:40;101087.13;;;14.43;100.00
12969;BME280;6549;53.128;8.182;2023-07-20T00:11:48;101084.75;;;14.45;100.00
12969;BME280;6549;53.128;8.182;2023-07-20T00:14:50;101087.94;;;14.40;100.00
12969;BME280;6549;53.128;8.182;2023-07-20T00:17:53;101093.09;;;14.42;100.00
12969;BME280;6549;53.128;8.182;2023-07-20T00:20:54;101088.72;;;14.41;100.00
12969;BME280;6549;53.128;8.182;2023-07-20T00:24:00;101076.53;;;14.38;100.00
12969;BME280;6549;53.128;8.182;2023-07-20T00:27:16;101074.94;;;14.37;100.00
12969;BME280;6549;53.128;8.182;2023-07-20T00:30:17;101082.06;;;14.38;100.00
12969;BME280;6549;53.128;8.182;2023-07-20T00:33:18;101074.94;;;14.37;100.00
12969;BME280;6549;53.128;8.182;2023-07-20T00:36:19;101076.09;;;14.39;100.00
12969;BME280;6549;53.128;8.182;2023-07-20T00:39:19;101072.94;;;14.34;100.00
12969;BME280;6549;53.128;8.182;2023-07-20T00:42:19;101073.75;;;14.31;100.00
12969;BME280;6549;53.128;8.182;2023-07-20T00:45:20;101075.69;;;14.34;100.00
12969;BME280;6549;53.128;8.182;2023-07-20T00:48:20;101074.13;;;14.29;100.00
12969;BME280;6549;53.128;8.182;2023-07-20T00:51:21;101084.00;;;14.30;100.00
12969;BME280;6549;53.128;8.182;2023-07-20T00:54:26;101091.50;;;14.30;100.00
12969;BME280;6549;53.128;8.182;2023-07-20T00:57:30;101082.84;;;14.28;100.00
12969;BME280;6549;53.128;8.182;2023-07-20T01:00:33;101090.34;;;14.27;100.00
12969;BME280;6549;53.128;8.182;2023-07-20T01:03:33;101083.25;;;14.26;100.00
12969;BME280;6549;53.128;8.182;2023-07-20T01:06:41;101085.63;;;14.28;100.00
12969;BME280;6549;53.128;8.182;2023-07-20T01:10:06;101088.38;;;14.28;100.00
12969;BME280;6549;53.128;8.182;2023-07-20T01:13:11;101103.78;;;14.29;100.00
12969;BME280;6549;53.128;8.182;2023-07-20T01:16:14;101100.66;;;14.20;100.00
12969;BME280;6549;53.128;8.182;2023-07-20T01:19:14;101097.09;;;14.19;100.00
12969;BME280;6549;53.128;8.182;2023-07-20T01:32:36;101101.44;;;14.17;100.00
12969;BME280;6549;53.128;8.182;2023-07-20T01:35:39;101099.09;;;14.15;100.00
12969;BME280;6549;53.128;8.182;2023-07-20T01:38:41;101095.13;;;14.16;100.00
12969;BME280;6549;53.128;8.182;2023-07-20T01:41:42;101086.06;;;14.19;100.00
12969;BME280;6549;53.128;8.182;2023-07-20T01:44:46;101077.75;;;14.23;100.00
12969;BME280;6549;53.128;8.182;2023-07-20T01:47:46;101089.19;;;14.25;100.00
12969;BME280;6549;53.128;8.182;2023-07-20T01:50:46;101084.44;;;14.22;100.00
12969;BME280;6549;53.128;8.182;2023-07-20T01:53:47;101086.06;;;14.19;100.00
12969;BME280;6549;53.128;8.182;2023-07-20T01:56:47;101084.88;;;14.20;100.00
12969;BME280;6549;53.128;8.182;2023-07-20T01:59:48;101081.31;;;14.20;100.00
12969;BME280;6549;53.128;8.182;2023-07-20T02:02:48;101081.31;;;14.16;100.00
12969;BME280;6549;53.128;8.182;2023-07-20T02:05:48;101089.59;;;14.16;100.00
12969;BME280;6549;53.128;8.182;2023-07-20T02:08:49;101084.06;;;14.16;100.00
12969;BME280;6549;53.128;8.182;2023-07-20T02:11:49;101077.38;;;14.17;100.00
12969;BME280;6549;53.128;8.182;2023-07-20T02:14:50;101084.06;;;14.16;100.00
12969;BME280;6549;53.128;8.182;2023-07-20T02:17:51;101086.06;;;14.16;100.00
12969;BME280;6549;53.128;8.182;2023-07-20T02:20:53;101089.59;;;14.16;100.00
12969;BME280;6549;53.128;8.182;2023-07-20T02:23:54;101083.31;;;14.12;100.00
12969;BME280;6549;53.128;8.182;2023-07-20T02:26:54;101083.31;;;14.12;100.00
12969;BME280;6549;53.128;8.182;2023-07-20T02:29:55;101087.28;;;14.11;100.00
12969;BME280;6549;53.128;8.182;2023-07-20T02:32:55;101081.75;;;14.08;100.00
12969;BME280;6549;53.128;8.182;2023-07-20T02:35:58;101090.03;;;14.08;100.00
12969;BME280;6549;53.128;8.182;2023-07-20T02:38:58;101087.28;;;14.08;100.00
12969;BME280;6549;53.128;8.182;2023-07-20T02:41:59;101079.78;;;14.05;100.00
12969;BME280;6549;53.128;8.182;2023-07-20T02:44:59;101078.22;;;14.04;100.00
12969;BME280;6549;53.128;8.182;2023-07-20T02:47:59;101086.13;;;14.02;100.00
12969;BME280;6549;53.128;8.182;2023-07-20T02:51:01;101088.09;;;14.01;100.00
12969;BME280;6549;53.128;8.182;2023-07-20T02:54:01;101082.56;;;14.01;100.00
12969;BME280;6549;53.128;8.182;2023-07-20T02:57:01;101084.53;;;14.01;100.00
12969;BME280;6549;53.128;8.182;2023-07-20T03:00:03;101084.94;;;14.03;100.00
12969;BME280;6549;53.128;8.182;2023-07-20T03:03:04;101087.31;;;14.01;100.00
12969;BME280;6549;53.128;8.182;2023-07-20T03:06:09;101092.84;;;14.01;100.00
12969;BME280;6549;53.128;8.182;2023-07-20T03:09:09;101094.41;;;14.02;100.00
12969;BME280;6549;53.128;8.182;2023-07-20T03:12:10;101096.41;;;13.98;100.00
12969;BME280;6549;53.128;8.182;2023-07-20T03:15:10;101107.84;;;14.00;100.00
12969;BME280;6549;53.128;8.182;2023-07-20T03:18:11;101104.69;;;13.98;100.00
12969;BME280;6549;53.128;8.182;2023-07-20T03:21:12;101109.44;;;13.93;100.00
12969;BME280;6549;53.128;8.182;2023-07-20T03:24:12;101106.69;;;13.93;100.00
12969;BME280;6549;53.128;8.182;2023-07-20T03:27:13;101104.69;;;13.90;100.00
12969;BME280;6549;53.128;8.182;2023-07-20T03:30:13;101111.03;;;13.87;100.00
12969;BME280;6549;53.128;8.182;2023-07-20T03:33:14;101112.22;;;13.86;100.00
12969;BME280;6549;53.128;8.182;2023-07-20T03:36:14;101114.59;;;13.84;100.00
12969;BME280;6549;53.128;8.182;2023-07-20T03:39:14;101111.44;;;13.82;100.00
12969;BME280;6549;53.128;8.182;2023-07-20T03:42:15;101120.53;;;13.79;100.00
12969;BME280;6549;53.128;8.182;2023-07-20T03:45:15;101119.75;;;13.75;100.00
12969;BME280;6549;53.128;8.182;2023-07-20T03:48:16;101111.06;;;13.73;100.00
12969;BME280;6549;53.128;8.182;2023-07-20T03:51:17;101108.34;;;13.66;100.00
12969;BME280;6549;53.128;8.182;2023-07-20T03:54:17;101117.41;;;13.67;100.00
12969;BME280;6549;53.128;8.182;2023-07-20T03:57:19;101112.66;;;13.64;100.00
12969;BME280;6549;53.128;8.182;2023-07-20T04:00:19;101125.28;;;13.61;100.00
12969;BME280;6549;53.128;8.182;2023-07-20T04:03:20;101121.75;;;13.61;100.00
12969;BME280;6549;53.128;8.182;2023-07-20T04:06:20;101122.53;;;13.61;100.00
12969;BME280;6549;53.128;8.182;2023-07-20T04:09:21;101126.88;;;13.59;100.00
12969;BME280;6549;53.128;8.182;2023-07-20T04:12:22;101117.81;;;13.55;100.00
12969;BME280;6549;53.128;8.182;2023-07-20T04:15:22;101121.75;;;13.50;100.00
12969;BME280;6549;53.128;8.182;2023-07-20T04:18:22;101121.38;;;13.48;100.00
12969;BME280;6549;53.128;8.182;2023-07-20T04:21:25;101125.31;;;13.47;100.00
12969;BME280;6549;53.128;8.182;2023-07-20T04:24:25;101136.34;;;13.50;100.00
12969;BME280;6549;53.128;8.182;2023-07-20T04:27:26;101127.69;;;13.52;100.00
12969;BME280;6549;53.128;8.182;2023-07-20T04:30:26;101129.25;;;13.60;100.00
12969;BME280;6549;53.128;8.182;2023-07-20T04:33:27;101133.16;;;13.70;100.00
12969;BME280;6549;53.128;8.182;2023-07-20T04:36:29;101133.16;;;13.77;100.00
12969;BME280;6549;53.128;8.182;2023-07-20T04:39:29;101135.50;;;13.82;100.00
12969;BME280;6549;53.128;8.182;2023-07-20T04:42:32;101137.47;;;13.88;100.00
12969;BME280;6549;53.128;8.182;2023-07-20T04:45:33;101139.81;;;14.01;100.00
12969;BME280;6549;53.128;8.182;2023-07-20T04:48:33;101129.94;;;14.00;100.00
12969;BME280;6549;53.128;8.182;2023-07-20T04:51:33;101135.47;;;14.07;100.00
12969;BME280;6549;53.128;8.182;2023-07-20T04:54:34;101139.78;;;14.11;100.00
12969;BME280;6549;53.128;8.182;2023-07-20T04:57:34;101142.53;;;14.15;100.00
12969;BME280;6549;53.128;8.182;2023-07-20T05:00:37;101144.50;;;14.18;100.00
12969;BME280;6549;53.128;8.182;2023-07-20T05:03:38;101142.09;;;14.23;100.00
12969;BME280;6549;53.128;8.182;2023-07-20T05:06:38;101149.97;;;14.32;100.00
12969;BME280;6549;53.128;8.182;2023-07-20T05:09:39;101144.06;;;14.37;100.00
12969;BME280;6549;53.128;8.182;2023-07-20T05:12:39;101145.97;;;14.44;100.00
12969;BME280;6549;53.128;8.182;2023-07-20T05:15:39;101146.75;;;14.55;100.00
12969;BME280;6549;53.128;8.182;2023-07-20T05:18:40;101143.94;;;14.58;100.00
12969;BME280;6549;53.128;8.182;2023-07-20T05:21:40;101147.00;;;14.78;100.00
12969;BME280;6549;53.128;8.182;2023-07-20T05:24:40;101141.38;;;14.89;100.00
12969;BME280;6549;53.128;8.182;2023-07-20T05:27:41;101142.88;;;15.04;100.00
12969;BME280;6549;53.128;8.182;2023-07-20T05:30:41;101149.47;;;15.20;100.00
12969;BME280;6549;53.128;8.182;2023-07-20T05:33:41;101144.19;;;15.37;100.00
12969;BME280;6549;53.128;8.182;2023-07-20T05:36:42;101139.31;;;15.55;100.00
12969;BME280;6549;53.128;8.182;2023-07-20T05:39:42;101141.50;;;15.74;100.00
12969;BME280;6549;53.128;8.182;2023-07-20T05:42:42;101142.16;;;15.89;100.00
12969;BME280;6549;53.128;8.182;2023-07-20T05:45:43;101142.72;;;16.07;100.00
12969;BME280;6549;53.128;8.182;2023-07-20T05:48:44;101147.31;;;16.24;100.00
12969;BME280;6549;53.128;8.182;2023-07-20T05:51:45;101147.44;;;16.44;100.00
12969;BME280;6549;53.128;8.182;2023-07-20T05:54:46;101142.47;;;16.62;100.00
12969;BME280;6549;53.128;8.182;2023-07-20T05:57:47;101142.56;;;16.82;100.00
12969;BME280;6549;53.128;8.182;2023-07-20T06:00:48;101139.06;;;17.04;100.00
12969;BME280;6549;53.128;8.182;2023-07-20T06:03:49;101152.41;;;17.13;100.00
12969;BME280;6549;53.128;8.182;2023-07-20T06:06:49;101145.69;;;17.37;100.00
12969;BME280;6549;53.128;8.182;2023-07-20T06:09:50;101149.56;;;17.43;100.00
12969;BME280;6549;53.128;8.182;2023-07-20T06:12:50;101159.13;;;17.66;100.00
12969;BME280;6549;53.128;8.182;2023-07-20T06:15:50;101152.25;;;17.93;100.00
12969;BME280;6549;53.128;8.182;2023-07-20T06:18:51;101163.88;;;18.28;100.00
12969;BME280;6549;53.128;8.182;2023-07-20T06:21:51;101163.59;;;18.03;100.00
12969;BME280;6549;53.128;8.182;2023-07-20T06:24:51;101169.16;;;17.83;100.00
12969;BME280;6549;53.128;8.182;2023-07-20T06:27:52;101171.06;;;17.86;100.00
12969;BME280;6549;53.128;8.182;2023-07-20T06:30:52;101170.38;;;17.59;100.00
12969;BME280;6549;53.128;8.182;2023-07-20T06:33:52;101163.84;;;17.19;100.00
12969;BME280;6549;53.128;8.182;2023-07-20T06:36:53;101162.66;;;17.20;100.00
12969;BME280;6549;53.128;8.182;2023-07-20T06:39:53;101168.53;;;17.72;100.00
12969;BME280;6549;53.128;8.182;2023-07-20T06:42:53;101169.13;;;18.26;100.00
12969;BME280;6549;53.128;8.182;2023-07-20T06:45:54;101159.75;;;18.75;100.00
12969;BME280;6549;53.128;8.182;2023-07-20T06:48:54;101169.97;;;18.62;100.00
12969;BME280;6549;53.128;8.182;2023-07-20T06:51:55;101162.09;;;18.37;100.00
12969;BME280;6549;53.128;8.182;2023-07-20T06:54:55;101164.13;;;18.57;100.00
12969;BME280;6549;53.128;8.182;2023-07-20T06:57:55;101168.06;;;19.11;100.00
12969;BME280;6549;53.128;8.182;2023-07-20T07:00:56;101168.38;;;19.49;100.00
12969;BME280;6549;53.128;8.182;2023-07-20T07:03:56;101170.50;;;19.74;100.00
12969;BME280;6549;53.128;8.182;2023-07-20T07:06:56;101172.94;;;19.23;100.00
12969;BME280;6549;53.128;8.182;2023-07-20T07:09:57;101171.66;;;18.76;100.00
12969;BME280;6549;53.128;8.182;2023-07-20T07:12:57;101172.44;;;18.76;100.00
12969;BME280;6549;53.128;8.182;2023-07-20T07:15:57;101174.41;;;18.96;100.00
12969;BME280;6549;53.128;8.182;2023-07-20T07:18:58;101175.59;;;18.78;100.00
12969;BME280;6549;53.128;8.182;2023-07-20T07:21:58;101182.59;;;19.03;100.00
12969;BME280;6549;53.128;8.182;2023-07-20T07:24:59;101180.06;;;18.92;100.00
12969;BME280;6549;53.128;8.182;2023-07-20T07:27:59;101184.31;;;18.97;100.00
12969;BME280;6549;53.128;8.182;2023-07-20T07:30:59;101186.38;;;19.28;100.00
12969;BME280;6549;53.128;8.182;2023-07-20T07:34:00;101186.00;;;19.75;100.00
12969;BME280;6549;53.128;8.182;2023-07-20T07:37:01;101188.09;;;20.16;100.00
12969;BME280;6549;53.128;8.182;2023-07-20T07:40:01;101196.06;;;20.17;100.00
12969;BME280;6549;53.128;8.182;2023-07-20T07:43:01;101190.13;;;20.15;100.00
12969;BME280;6549;53.128;8.182;2023-07-20T07:46:02;101191.31;;;20.31;100.00
12969;BME280;6549;53.128;8.182;2023-07-20T07:49:02;101193.63;;;20.61;100.00
12969;BME280;6549;53.128;8.182;2023-07-20T07:52:03;101201.16;;;20.35;100.00
12969;BME280;6549;53.128;8.182;2023-07-20T07:55:03;101200.84;;;20.17;100.00
12969;BME280;6549;53.128;8.182;2023-07-20T07:58:04;101203.63;;;19.72;100.00
12969;BME280;6549;53.128;8.182;2023-07-20T08:01:04;101202.22;;;19.48;100.00
12969;BME280;6549;53.128;8.182;2023-07-20T08:04:04;101203.09;;;19.28;100.00
12969;BME280;6549;53.128;8.182;2023-07-20T08:07:05;101200.13;;;18.83;100.00
12969;BME280;6549;53.128;8.182;2023-07-20T08:10:06;101208.47;;;19.19;100.00
12969;BME280;6549;53.128;8.182;2023-07-20T08:13:06;101200.31;;;19.77;100.00
12969;BME280;6549;53.128;8.182;2023-07-20T08:16:07;101206.06;;;20.31;100.00
12969;BME280;6549;53.128;8.182;2023-07-20T08:19:07;101205.81;;;20.67;100.00
12969;BME280;6549;53.128;8.182;2023-07-20T08:22:07;101207.38;;;20.68;100.00
12969;BME280;6549;53.128;8.182;2023-07-20T08:25:08;101216.81;;;20.16;100.00
12969;BME280;6549;53.128;8.182;2023-07-20T08:28:10;101211.38;;;20.26;100.00
12969;BME280;6549;53.128;8.182;2023-07-20T08:31:11;101213.09;;;20.36;100.00
12969;BME280;6549;53.128;8.182;2023-07-20T08:34:11;101203.28;;;20.15;100.00
12969;BME280;6549;53.128;8.182;2023-07-20T08:37:11;101209.94;;;20.62;100.00
12969;BME280;6549;53.128;8.182;2023-07-20T08:40:13;101199.47;;;20.79;100.00
12969;BME280;6549;53.128;8.182;2023-07-20T08:43:14;101214.38;;;21.01;100.00
12969;BME280;6549;53.128;8.182;2023-07-20T08:46:16;101216.63;;;21.44;100.00
12969;BME280;6549;53.128;8.182;2023-07-20T08:49:17;101216.84;;;21.25;100.00
12969;BME280;6549;53.128;8.182;2023-07-20T08:52:18;101221.59;;;20.99;100.00
12969;BME280;6549;53.128;8.182;2023-07-20T08:55:20;101224.03;;;20.30;100.00
12969;BME280;6549;53.128;8.182;2023-07-20T08:58:23;101218.84;;;19.84;100.00
12969;BME280;6549;53.128;8.182;2023-07-20T09:01:24;101221.09;;;19.40;100.00
12969;BME280;6549;53.128;8.182;2023-07-20T09:04:25;101223.59;;;19.02;100.00
12969;BME280;6549;53.128;8.182;2023-07-20T09:07:25;101231.94;;;19.02;100.00
12969;BME280;6549;53.128;8.182;2023-07-20T09:10:26;101235.69;;;19.64;100.00
12969;BME280;6549;53.128;8.182;2023-07-20T09:13:26;101238.50;;;20.25;100.00
12969;BME280;6549;53.128;8.182;2023-07-20T09:16:27;101239.34;;;20.38;100.00
12969;BME280;6549;53.128;8.182;2023-07-20T09:19:29;101234.59;;;20.06;100.00
12969;BME280;6549;53.128;8.182;2023-07-20T09:22:30;101236.88;;;20.11;100.00
12969;BME280;6549;53.128;8.182;2023-07-20T09:25:31;101234.13;;;20.94;100.00
12969;BME280;6549;53.128;8.182;2023-07-20T09:28:41;101231.94;;;21.15;100.00
12969;BME280;6549;53.128;8.182;2023-07-20T09:31:42;101223.94;;;20.75;100.00
12969;BME280;6549;53.128;8.182;2023-07-20T09:34:43;101230.91;;;20.26;100.00
12969;BME280;6549;53.128;8.182;2023-07-20T09:37:49;101230.91;;;20.09;100.00
12969;BME280;6549;53.128;8.182;2023-07-20T09:40:52;101225.94;;;19.72;100.00
12969;BME280;6549;53.128;8.182;2023-07-20T09:43:53;101225.94;;;19.56;100.00
12969;BME280;6549;53.128;8.182;2023-07-20T09:46:54;101226.19;;;19.45;100.00
12969;BME280;6549;53.128;8.182;2023-07-20T09:49:59;101223.84;;;19.76;100.00
12969;BME280;6549;53.128;8.182;2023-07-20T09:53:01;101225.28;;;19.97;100.00
12969;BME280;6549;53.128;8.182;2023-07-20T09:56:02;101226.84;;;19.98;100.00
12969;BME280;6549;53.128;8.182;2023-07-20T09:59:04;101222.53;;;19.81;100.00
12969;BME280;6549;53.128;8.182;2023-07-20T10:02:13;101229.75;;;19.94;100.00
12969;BME280;6549;53.128;8.182;2023-07-20T10:05:19;101231.19;;;20.15;100.00
12969;BME280;6549;53.128;8.182;2023-07-20T10:08:20;101232.09;;;20.41;100.00
12969;BME280;6549;53.128;8.182;2023-07-20T10:11:26;101225.97;;;21.00;100.00
12969;BME280;6549;53.128;8.182;2023-07-20T10:14:30;101228.97;;;21.69;100.00
12969;BME280;6549;53.128;8.182;2023-07-20T10:17:35;101225.38;;;21.93;100.00
12969;BME280;6549;53.128;8.182;2023-07-20T10:20:39;101220.09;;;22.08;100.00
12969;BME280;6549;53.128;8.182;2023-07-20T10:23:41;101221.13;;;22.23;100.00
12969;BME280;6549;53.128;8.182;2023-07-20T10:26:42;101216.25;;;22.58;100.00
12969;BME280;6549;53.128;8.182;2023-07-20T10:29:42;101216.38;;;23.07;100.00
12969;BME280;6549;53.128;8.182;2023-07-20T10:32:43;101222.44;;;23.37;87.18
12969;BME280;6549;53.128;8.182;2023-07-20T10:36:01;101223.25;;;23.46;84.60
12969;BME280;6549;53.128;8.182;2023-07-20T10:39:02;101215.84;;;23.70;85.68
12969;BME280;6549;53.128;8.182;2023-07-20T10:42:12;101224.44;;;23.94;76.43
12969;BME280;6549;53.128;8.182;2023-07-20T10:45:13;101211.50;;;23.97;78.57
12969;BME280;6549;53.128;8.182;2023-07-20T10:48:20;101222.13;;;24.11;79.95
12969;BME280;6549;53.128;8.182;2023-07-20T10:51:21;101215.13;;;24.25;79.91
12969;BME280;6549;53.128;8.182;2023-07-20T10:57:31;101224.53;;;23.45;75.69
12969;BME280;6549;53.128;8.182;2023-07-20T11:00:31;101216.19;;;22.49;81.16
12969;BME280;6549;53.128;8.182;2023-07-20T11:03:34;101223.91;;;21.89;85.70
12969;BME280;6549;53.128;8.182;2023-07-20T11:06:35;101212.03;;;21.25;85.41
12969;BME280;6549;53.128;8.182;2023-07-20T11:09:38;101207.03;;;21.92;85.93
12969;BME280;6549;53.128;8.182;2023-07-20T11:12:38;101205.56;;;22.66;78.70
12969;BME280;6549;53.128;8.182;2023-07-20T11:18:47;101213.66;;;23.65;66.90
12969;BME280;6549;53.128;8.182;2023-07-20T11:21:51;101220.69;;;23.88;65.22
12969;BME280;6549;53.128;8.182;2023-07-20T11:24:55;101222.63;;;24.19;59.06
12969;BME280;6549;53.128;8.182;2023-07-20T11:27:58;101224.63;;;24.27;58.33
12969;BME280;6549;53.128;8.182;2023-07-20T11:30:58;101214.97;;;24.46;60.75
12969;BME280;6549;53.128;8.182;2023-07-20T11:33:59;101211.59;;;24.93;56.08
12969;BME280;6549;53.128;8.182;2023-07-20T11:36:59;101214.69;;;25.04;58.69
12969;BME280;6549;53.128;8.182;2023-07-20T11:40:00;101229.47;;;25.14;57.10
12969;BME280;6549;53.128;8.182;2023-07-20T11:43:00;101224.69;;;24.96;54.65
12969;BME280;6549;53.128;8.182;2023-07-20T11:46:01;101220.44;;;23.46;65.84
12969;BME280;6549;53.128;8.182;2023-07-20T11:49:01;101207.78;;;22.49;71.10
12969;BME280;6549;53.128;8.182;2023-07-20T11:52:03;101217.00;;;21.93;79.93
12969;BME280;6549;53.128;8.182;2023-07-20T11:55:04;101211.63;;;21.74;78.81
12969;BME280;6549;53.128;8.182;2023-07-20T11:58:06;101216.69;;;21.66;78.36
12969;BME280;6549;53.128;8.182;2023-07-20T12:01:07;101218.81;;;21.62;83.27
12969;BME280;6549;53.128;8.182;2023-07-20T12:04:07;101227.66;;;21.61;79.88
12969;BME280;6549;53.128;8.182;2023-07-20T12:07:11;101218.69;;;21.66;82.78
12969;BME280;6549;53.128;8.182;2023-07-20T12:10:12;101213.66;;;22.42;76.73
12969;BME280;6549;53.128;8.182;2023-07-20T12:13:12;101227.72;;;22.51;72.31
12969;BME280;6549;53.128;8.182;2023-07-20T12:16:16;101220.50;;;21.72;71.38
12969;BME280;6549;53.128;8.182;2023-07-20T12:19:17;101213.69;;;20.97;76.49
12969;BME280;6549;53.128;8.182;2023-07-20T12:22:17;101212.97;;;20.81;78.45
12969;BME280;6549;53.128;8.182;2023-07-20T12:25:17;101210.78;;;21.39;78.32
12969;BME280;6549;53.128;8.182;2023-07-20T12:28:20;101205.53;;;22.01;79.79
12969;BME280;6549;53.128;8.182;2023-07-20T12:31:22;101208.13;;;22.51;74.31
12969;BME280;6549;53.128;8.182;2023-07-20T12:34:24;101203.75;;;22.72;77.60
12969;BME280;6549;53.128;8.182;2023-07-20T12:37:24;101210.53;;;22.83;70.75
12969;BME280;6549;53.128;8.182;2023-07-20T12:40:25;101207.53;;;23.09;70.49
12969;BME280;6549;53.128;8.182;2023-07-20T12:43:25;101205.09;;;23.29;66.99
12969;BME280;6549;53.128;8.182;2023-07-20T12:46:26;101204.91;;;23.63;69.91
12969;BME280;6549;53.128;8.182;2023-07-20T12:49:29;101200.69;;;23.50;66.79
12969;BME280;6549;53.128;8.182;2023-07-20T12:52:29;101190.75;;;23.18;65.53
12969;BME280;6549;53.128;8.182;2023-07-20T12:55:30;101193.53;;;23.58;65.03
12969;BME280;6549;53.128;8.182;2023-07-20T12:58:30;101190.63;;;23.98;61.82
12969;BME280;6549;53.128;8.182;2023-07-20T13:01:30;101193.41;;;23.70;62.24
12969;BME280;6549;53.128;8.182;2023-07-20T13:04:31;101193.50;;;23.09;62.14
12969;BME280;6549;53.128;8.182;2023-07-20T13:07:33;101189.84;;;23.30;62.74
12969;BME280;6549;53.128;8.182;2023-07-20T13:10:34;101187.03;;;23.30;63.68
12969;BME280;6549;53.128;8.182;2023-07-20T13:13:34;101188.28;;;22.89;57.66
12969;BME280;6549;53.128;8.182;2023-07-20T13:16:34;101192.31;;;22.66;61.52
12969;BME280;6549;53.128;8.182;2023-07-20T13:19:35;101199.84;;;22.26;65.26
12969;BME280;6549;53.128;8.182;2023-07-20T13:22:36;101191.94;;;21.77;67.99
12969;BME280;6549;53.128;8.182;2023-07-20T13:25:37;101193.22;;;21.51;69.60
12969;BME280;6549;53.128;8.182;2023-07-20T13:28:38;101198.47;;;21.11;69.40
12969;BME280;6549;53.128;8.182;2023-07-20T13:31:38;101191.44;;;20.94;69.98
12969;BME280;6549;53.128;8.182;2023-07-20T13:34:38;101192.22;;;21.07;68.82
12969;BME280;6549;53.128;8.182;2023-07-20T13:37:39;101188.22;;;21.21;70.87
12969;BME280;6549;53.128;8.182;2023-07-20T13:40:39;101196.16;;;21.35;69.51
12969;BME280;6549;53.128;8.182;2023-07-20T13:43:40;101188.13;;;21.37;67.99
12969;BME280;6549;53.128;8.182;2023-07-20T13:46:40;101182.72;;;21.55;66.65
12969;BME280;6549;53.128;8.182;2023-07-20T13:49:40;101181.78;;;21.71;68.39
12969;BME280;6549;53.128;8.182;2023-07-20T13:52:41;101190.31;;;21.55;70.70
12969;BME280;6549;53.128;8.182;2023-07-20T13:55:42;101184.06;;;21.50;71.62
12969;BME280;6549;53.128;8.182;2023-07-20T13:58:42;101192.91;;;21.83;69.31
12969;BME280;6549;53.128;8.182;2023-07-20T14:01:42;101176.53;;;22.29;70.47
12969;BME280;6549;53.128;8.182;2023-07-20T14:04:43;101185.19;;;22.65;68.10
12969;BME280;6549;53.128;8.182;2023-07-20T14:07:46;101186.81;;;22.32;67.64
12969;BME280;6549;53.128;8.182;2023-07-20T14:10:47;101183.81;;;21.92;71.46
12969;BME280;6549;53.128;8.182;2023-07-20T14:13:47;101178.75;;;21.65;71.88
12969;BME280;6549;53.128;8.182;2023-07-20T14:16:47;101176.78;;;21.53;73.03
12969;BME280;6549;53.128;8.182;2023-07-20T14:19:48;101179.06;;;21.33;71.04
12969;BME280;6549;53.128;8.182;2023-07-20T14:22:48;101186.19;;;21.08;71.67
12969;BME280;6549;53.128;8.182;2023-07-20T14:25:49;101178.13;;;20.85;74.08
12969;BME280;6549;53.128;8.182;2023-07-20T14:28:49;101165.63;;;20.77;73.87
12969;BME280;6549;53.128;8.182;2023-07-20T14:31:50;101177.56;;;20.90;75.76
12969;BME280;6549;53.128;8.182;2023-07-20T14:34:52;101171.63;;;20.76;75.76
12969;BME280;6549;53.128;8.182;2023-07-20T14:37:53;101171.19;;;20.77;77.58
12969;BME280;6549;53.128;8.182;2023-07-20T14:40:53;101170.88;;;21.00;76.43
12969;BME280;6549;53.128;8.182;2023-07-20T14:43:54;101172.34;;;21.18;75.12
12969;BME280;6549;53.128;8.182;2023-07-20T14:46:54;101177.13;;;21.04;73.00
12969;BME280;6549;53.128;8.182;2023-07-20T14:49:55;101168.19;;;21.10;75.88
12969;BME280;6549;53.128;8.182;2023-07-20T14:52:55;101164.06;;;21.01;75.38
12969;BME280;6549;53.128;8.182;2023-07-20T14:56:00;101163.59;;;21.03;76.26
12969;BME280;6549;53.128;8.182;2023-07-20T14:59:01;101162.38;;;21.04;77.04
12969;BME280;6549;53.128;8.182;2023-07-20T15:02:01;101172.78;;;21.03;74.19
12969;BME280;6549;53.128;8.182;2023-07-20T15:05:02;101162.69;;;20.81;71.92
12969;BME280;6549;53.128;8.182;2023-07-20T15:08:03;101166.72;;;20.67;73.56
12969;BME280;6549;53.128;8.182;2023-07-20T15:11:03;101172.41;;;20.63;74.54
12969;BME280;6549;53.128;8.182;2023-07-20T15:14:03;101163.63;;;20.36;73.96
12969;BME280;6549;53.128;8.182;2023-07-20T15:17:04;101164.63;;;20.30;74.83
12969;BME280;6549;53.128;8.182;2023-07-20T15:20:06;101160.09;;;20.19;75.14
12969;BME280;6549;53.128;8.182;2023-07-20T15:23:07;101159.84;;;20.14;76.08
12969;BME280;6549;53.128;8.182;2023-07-20T15:26:07;101160.31;;;20.12;76.56
12969;BME280;6549;53.128;8.182;2023-07-20T15:29:07;101167.09;;;20.11;75.47
12969;BME280;6549;53.128;8.182;2023-07-20T15:32:08;101167.31;;;20.04;78.04
12969;BME280;6549;53.128;8.182;2023-07-20T15:35:09;101170.59;;;19.87;87.22
12969;BME280;6549;53.128;8.182;2023-07-20T15:38:11;101175.91;;;19.65;100.00
12969;BME280;6549;53.128;8.182;2023-07-20T15:41:11;101174.88;;;19.43;100.00
12969;BME280;6549;53.128;8.182;2023-07-20T15:44:12;101189.66;;;19.07;100.00
12969;BME280;6549;53.128;8.182;2023-07-20T15:47:13;101198.41;;;18.54;100.00
12969;BME280;6549;53.128;8.182;2023-07-20T15:50:13;101195.63;;;18.11;100.00
12969;BME280;6549;53.128;8.182;2023-07-20T15:53:14;101200.81;;;17.66;100.00
12969;BME280;6549;53.128;8.182;2023-07-20T15:56:15;101203.19;;;17.40;100.00
12969;BME280;6549;53.128;8.182;2023-07-20T15:59:17;101196.84;;;17.13;100.00
12969;BME280;6549;53.128;8.182;2023-07-20T16:02:17;101201.06;;;16.98;100.00
12969;BME280;6549;53.128;8.182;2023-07-20T16:05:17;101197.06;;;16.72;100.00
12969;BME280;6549;53.128;8.182;2023-07-20T16:08:18;101173.69;;;16.70;100.00